هرات, افغانستان

04:40 PM AFT on نوامبر 01, 2014 (GMT +0430)
Herat | Change Station
CLOSE
Current Station
Airport
Location: Herat,
Elevation: 3163 ft
Nearby Weather Stations

Elev 3163 ft 34.21 °N, 62.23 °E | Updated 15 minutes ago

Scattered Clouds
ابرهای پراکنده
72 °F
Feels Like 72 °F
N
18
باد متغير باد from جنوب

امروز
High -- | Low -- °F
--% Chance of Precip.
دیروز
High -- | Low -- °F
Precip. -- در
6:40 AM 5:28 PM
Waxing Gibbous, 66% visible
فشار 29.98 در
ديد 6.2 مايل، ميل (در برابر كيلومتر
ابری ابرهای پراکنده 10000 ft
قطره شبنم 25 °F
رطوبت 17%
بارش باران 0.00 در
برف عمیق Not available.
مادون قرمز 0 out of 12
Pollen Not available.
تمیزی هوا Not available.
Flu Activity Not available.
METAR OAHR 011155Z 18016KT 9999 SCT100 22/M04 Q1015 RMK OVC BKN160 VIS MIN 9999 BLU

More Conditions Fewer Conditions

فشار 29.98 در
ديد 6.2 مايل، ميل (در برابر كيلومتر
ابری ابرهای پراکنده 10000 ft
قطره شبنم 25 °F
رطوبت 17%
بارش باران 0.00 در
برف عمیق Not available.
مادون قرمز 0 out of 12
Pollen Not available.
تمیزی هوا Not available.
Flu Activity Not available.
METAR OAHR 011155Z 18016KT 9999 SCT100 22/M04 Q1015 RMK OVC BKN160 VIS MIN 9999 BLU

More Conditions Fewer Conditions

10-Day Weather Forecast

Almanac

ستاره شناسی

Nov. 01, 2014 Rise Set
وقت حقیقی
تاریک و روشن اجتماعی
تاریک روشن دریایی
شفق و فلق نجومی
ماه
میزان روشنایی روز
طول روز
Tomorrow will be .
, % of the Moon is Illuminated

Today's Extremes

Country Highs Country Lows

Community

WunderPhotos

Upload Photos

1,766,909 photos uploaded!

WunderBlogs® & News

Nearby

تمیزی هوا

  تمیزی هوا AQ Index آلاینده
Not available.

عمق برف

Station Depth Elevation

Earthquake Activity

شهر Distance Mag. Time & Date
Minimum magnitude displayed is 2.5.

Coastal Water Temperatures

منطقه درجه حرارت

Nearby Weather Stations